Time;durP1;ratioP1;P1;durP2;ratioP2;P2;SDS_P1;SDS_P2;PMS_P1;PMS_P2;Temp;Humidity;BMP_temperature;BMP_pressure;BME280_temperature;BME280_humidity;BME280_pressure;Samples;Min_cycle;Max_cycle;Signal;HPM_P1;HPM_P2
2021/06/20 00:00:04;;;;;;;14.18;7.03;;;;;;;21.00;85.89;100318.13;5069207;28;20053;-66
2021/06/20 00:02:31;;;;;;;13.38;6.45;;;;;;;21.02;85.51;100316.22;5069581;28;20055;-65
2021/06/20 00:04:57;;;;;;;14.80;7.03;;;;;;;21.09;85.33;100312.19;5069038;28;20411;-64
2021/06/20 00:07:25;;;;;;;12.88;6.20;;;;;;;21.13;84.91;100308.38;5072570;28;20051;-64
2021/06/20 00:09:51;;;;;;;13.73;6.45;;;;;;;21.22;84.55;100321.88;5071968;28;20055;-64
2021/06/20 00:12:18;;;;;;;15.70;6.78;;;;;;;21.12;84.58;100327.81;5072289;28;20051;-65
2021/06/20 00:14:44;;;;;;;17.73;6.68;;;;;;;21.02;85.05;100321.50;5067304;28;20462;-64
2021/06/20 00:17:11;;;;;;;16.77;6.72;;;;;;;21.04;84.38;100329.34;5068239;28;20055;-64
2021/06/20 00:19:37;;;;;;;14.05;6.00;;;;;;;21.06;84.38;100328.28;5067733;28;20680;-65
2021/06/20 00:22:04;;;;;;;13.30;6.82;;;;;;;21.07;84.89;100308.81;5059730;28;20052;-66
2021/06/20 00:24:31;;;;;;;13.80;5.82;;;;;;;21.17;85.15;100308.16;5067160;28;20056;-65
2021/06/20 00:26:58;;;;;;;10.57;6.22;;;;;;;21.24;84.41;100314.69;5069682;28;20081;-65
2021/06/20 00:29:24;;;;;;;10.32;6.47;;;;;;;21.26;84.44;100318.09;5065770;28;20040;-65
2021/06/20 00:31:51;;;;;;;10.57;7.13;;;;;;;21.29;84.48;100317.88;5067964;28;20051;-65
2021/06/20 00:34:17;;;;;;;11.02;6.82;;;;;;;21.24;84.89;100301.47;5067844;28;20053;-65
2021/06/20 00:36:44;;;;;;;12.98;7.05;;;;;;;21.30;83.98;100286.97;5068244;28;20056;-65
2021/06/20 00:39:10;;;;;;;10.68;6.57;;;;;;;21.25;84.96;100284.66;5060980;28;20047;-64
2021/06/20 00:41:38;;;;;;;11.20;6.90;;;;;;;21.17;85.25;100281.72;5064926;28;20055;-66
2021/06/20 00:44:05;;;;;;;9.55;6.13;;;;;;;21.27;85.18;100285.41;5065402;28;20048;-65
2021/06/20 00:46:32;;;;;;;13.35;6.18;;;;;;;21.28;84.44;100273.84;5071375;28;20055;-65
2021/06/20 00:48:58;;;;;;;8.82;5.43;;;;;;;21.28;84.53;100269.41;5066331;28;20506;-62
2021/06/20 00:51:25;;;;;;;10.15;5.28;;;;;;;21.27;84.75;100275.63;5072102;28;20051;-63
2021/06/20 00:53:51;;;;;;;12.30;5.07;;;;;;;21.27;84.17;100270.34;5065733;28;20045;-63
2021/06/20 00:56:18;;;;;;;8.77;5.03;;;;;;;21.30;84.85;100256.09;5061182;28;20525;-61
2021/06/20 00:58:46;;;;;;;10.57;4.40;;;;;;;21.25;84.53;100237.91;5060772;28;20131;-64
2021/06/20 01:01:12;;;;;;;10.48;4.75;;;;;;;21.34;84.51;100235.53;5061786;28;20040;-65
2021/06/20 01:03:39;;;;;;;14.13;5.45;;;;;;;21.36;84.02;100234.47;5075970;28;20040;-64
2021/06/20 01:06:05;;;;;;;11.07;4.15;;;;;;;21.36;83.40;100242.41;5064475;28;20048;-64
2021/06/20 01:08:32;;;;;;;14.20;3.92;;;;;;;21.31;83.59;100246.34;5064029;28;20036;-64
2021/06/20 01:10:58;;;;;;;9.43;3.65;;;;;;;21.34;83.80;100241.66;5071233;28;20071;-65
2021/06/20 01:13:25;;;;;;;13.93;4.55;;;;;;;21.36;83.90;100233.63;5068414;28;20536;-66
2021/06/20 01:15:52;;;;;;;10.18;3.90;;;;;;;21.28;83.52;100235.00;5061820;28;20067;-64
2021/06/20 01:18:21;;;;;;;11.32;4.10;;;;;;;21.24;83.92;100222.97;5066630;28;20040;-66
2021/06/20 01:20:48;;;;;;;10.88;3.53;;;;;;;21.30;83.20;100220.84;5064762;28;20044;-65
2021/06/20 01:23:16;;;;;;;11.73;4.15;;;;;;;21.21;83.65;100201.19;5064059;28;20045;-65
2021/06/20 01:25:44;;;;;;;10.05;4.07;;;;;;;21.26;83.86;100215.75;5067873;28;20048;-64
2021/06/20 01:28:12;;;;;;;9.13;3.72;;;;;;;21.16;83.91;100217.41;5069832;28;20071;-67
2021/06/20 01:30:44;;;;;;;7.63;3.50;;;;;;;21.09;83.93;100227.56;5066216;28;20048;-65
2021/06/20 01:33:12;;;;;;;7.70;3.53;;;;;;;21.02;84.06;100233.41;5066396;28;20043;-66
2021/06/20 01:35:39;;;;;;;14.48;3.92;;;;;;;21.06;83.94;100246.31;5066736;28;20473;-64
2021/06/20 01:38:07;;;;;;;8.60;3.30;;;;;;;21.07;84.25;100247.13;5062480;28;20041;-65
2021/06/20 01:40:35;;;;;;;11.30;4.30;;;;;;;21.14;83.83;100245.75;5061629;28;20051;-65
2021/06/20 01:43:02;;;;;;;6.70;2.92;;;;;;;21.21;83.08;100243.53;5057345;28;20051;-64
2021/06/20 01:45:30;;;;;;;10.65;4.18;;;;;;;21.13;82.72;100226.38;5061772;28;20063;-64
2021/06/20 01:47:59;;;;;;;9.18;3.05;;;;;;;21.12;83.06;100219.41;5064135;28;20127;-66
2021/06/20 01:50:26;;;;;;;13.02;3.40;;;;;;;21.06;82.92;100209.28;5065982;28;20406;-66
2021/06/20 01:53:07;;;;;;;8.88;3.50;;;;;;;21.03;82.65;100196.25;5059211;28;20125;-65
2021/06/20 01:55:36;;;;;;;10.43;3.85;;;;;;;21.06;82.14;100197.88;5066104;28;20618;-64
2021/06/20 01:58:05;;;;;;;12.90;4.18;;;;;;;21.06;82.14;100206.63;5064661;28;20067;-66
2021/06/20 02:00:31;;;;;;;10.68;3.83;;;;;;;21.05;81.95;100199.66;5061653;28;20123;-66
2021/06/20 02:03:05;;;;;;;11.88;3.78;;;;;;;21.08;81.72;100202.09;5061253;28;20053;-64
2021/06/20 02:05:31;;;;;;;8.18;3.13;;;;;;;21.08;81.33;100188.00;5059575;28;20056;-67
2021/06/20 02:07:57;;;;;;;8.15;3.10;;;;;;;21.07;81.54;100196.88;5055402;28;20379;-64
2021/06/20 02:10:24;;;;;;;7.55;2.38;;;;;;;21.10;80.52;100191.38;5064802;28;20051;-65
2021/06/20 02:12:52;;;;;;;8.02;1.95;;;;;;;21.10;80.90;100201.97;5062635;28;20052;-67
2021/06/20 02:15:19;;;;;;;7.45;1.90;;;;;;;21.16;81.26;100203.31;5059983;28;20044;-64
2021/06/20 02:17:47;;;;;;;8.90;2.10;;;;;;;21.19;81.10;100197.81;5069795;28;20044;-65
2021/06/20 02:20:15;;;;;;;9.75;2.28;;;;;;;21.18;80.78;100183.72;5068766;28;20041;-65
2021/06/20 02:22:43;;;;;;;8.75;2.05;;;;;;;21.20;79.98;100192.41;5067334;28;20047;-65
2021/06/20 02:25:12;;;;;;;12.50;2.03;;;;;;;21.13;80.52;100207.03;5066764;28;20071;-67
2021/06/20 02:27:39;;;;;;;7.22;1.80;;;;;;;21.13;80.87;100226.38;5064955;28;20052;-64
2021/06/20 02:30:10;;;;;;;6.95;1.88;;;;;;;21.15;81.14;100234.22;5063190;28;20693;-65
2021/06/20 02:32:37;;;;;;;5.03;1.65;;;;;;;21.11;81.43;100241.50;5062047;28;20493;-65
2021/06/20 02:35:05;;;;;;;8.23;1.73;;;;;;;21.15;81.04;100257.16;5069241;28;20486;-66
2021/06/20 02:37:32;;;;;;;7.28;2.30;;;;;;;21.11;81.31;100264.47;5062139;28;20044;-64
2021/06/20 02:39:59;;;;;;;8.25;2.30;;;;;;;21.17;80.72;100281.72;5064582;28;20704;-65
2021/06/20 02:42:25;;;;;;;12.77;2.45;;;;;;;21.12;81.05;100293.44;5065080;28;20049;-65
2021/06/20 02:44:53;;;;;;;8.60;2.35;;;;;;;21.12;80.82;100289.97;5064568;28;20053;-66
2021/06/20 02:47:21;;;;;;;7.15;2.20;;;;;;;21.13;81.17;100274.00;5068843;28;20037;-64
2021/06/20 02:49:47;;;;;;;10.73;2.50;;;;;;;21.11;81.34;100275.06;5067216;28;20040;-65
2021/06/20 02:52:15;;;;;;;7.40;2.90;;;;;;;20.99;82.12;100282.06;5063626;28;20422;-64
2021/06/20 02:54:50;;;;;;;10.02;2.65;;;;;;;20.95;82.31;100288.50;5067837;28;20413;-65
2021/06/20 02:57:18;;;;;;;7.40;2.58;;;;;;;21.03;82.38;100303.84;5063514;28;20048;-64
2021/06/20 02:59:44;;;;;;;10.93;2.55;;;;;;;20.94;82.42;100313.25;5055293;28;20036;-64
2021/06/20 03:02:11;;;;;;;10.52;3.17;;;;;;;20.95;82.63;100318.47;5063033;28;20048;-65
2021/06/20 03:04:39;;;;;;;6.55;2.30;;;;;;;20.99;82.35;100326.16;5063221;28;20410;-66
2021/06/20 03:07:05;;;;;;;11.23;2.70;;;;;;;20.89;82.90;100328.59;5065485;28;20037;-65
2021/06/20 03:09:32;;;;;;;14.48;3.38;;;;;;;20.88;82.93;100337.50;5065031;28;20688;-65
2021/06/20 03:11:58;;;;;;;12.18;2.92;;;;;;;20.89;83.41;100331.25;5071090;28;20036;-65
2021/06/20 03:14:25;;;;;;;11.07;4.00;;;;;;;20.84;83.16;100328.06;5061617;28;20040;-65
2021/06/20 03:16:51;;;;;;;9.02;3.35;;;;;;;20.89;83.62;100325.97;5068528;28;20044;-64
2021/06/20 03:19:18;;;;;;;13.48;4.00;;;;;;;20.97;83.27;100321.00;5067117;28;20043;-64
2021/06/20 03:21:45;;;;;;;7.88;3.10;;;;;;;20.96;82.97;100324.56;5073570;28;20066;-64
2021/06/20 03:24:12;;;;;;;12.32;4.30;;;;;;;20.94;83.07;100321.19;5073047;28;20047;-64
2021/06/20 03:26:38;;;;;;;9.75;4.70;;;;;;;20.98;82.28;100333.25;5068629;28;20056;-64
2021/06/20 03:29:06;;;;;;;12.95;6.10;;;;;;;20.98;82.36;100330.63;5065537;28;20049;-66
2021/06/20 03:31:32;;;;;;;14.60;6.43;;;;;;;20.96;82.35;100327.22;5060733;28;20067;-65
2021/06/20 03:34:00;;;;;;;15.15;6.13;;;;;;;20.95;82.38;100331.69;5068800;28;20041;-64
2021/06/20 03:36:28;;;;;;;11.93;6.88;;;;;;;21.01;81.69;100335.69;5070178;28;20044;-63
2021/06/20 03:38:56;;;;;;;16.23;7.10;;;;;;;20.99;81.37;100334.09;5066766;28;20048;-65
2021/06/20 03:41:23;;;;;;;17.58;8.27;;;;;;;20.96;81.29;100343.09;5066363;28;20045;-65
2021/06/20 03:43:49;;;;;;;13.75;7.25;;;;;;;20.93;81.40;100343.28;5062754;28;20086;-65
2021/06/20 03:46:18;;;;;;;14.90;8.10;;;;;;;20.84;81.39;100341.28;5063983;28;20123;-62
2021/06/20 03:48:45;;;;;;;20.77;7.57;;;;;;;20.87;81.27;100343.72;5060505;28;20127;-64
2021/06/20 03:51:11;;;;;;;14.77;8.43;;;;;;;20.80;81.32;100346.81;5056576;28;20106;-65
2021/06/20 03:53:38;;;;;;;14.02;8.95;;;;;;;20.72;81.87;100349.06;5072996;28;20056;-65
2021/06/20 03:56:06;;;;;;;19.23;9.13;;;;;;;20.72;81.85;100356.16;5072945;28;20490;-64
2021/06/20 03:58:32;;;;;;;15.07;8.93;;;;;;;20.69;82.30;100364.28;5066895;28;20036;-63
2021/06/20 04:00:59;;;;;;;12.93;7.72;;;;;;;20.72;81.96;100362.28;5060945;28;20486;-64
2021/06/20 04:03:25;;;;;;;13.60;8.85;;;;;;;20.69;81.86;100367.78;5068330;28;20041;-63
2021/06/20 04:05:52;;;;;;;17.67;9.30;;;;;;;20.74;81.62;100375.44;5066282;28;20040;-64
2021/06/20 04:08:18;;;;;;;17.08;9.38;;;;;;;20.76;81.13;100369.09;5069308;28;20037;-64
2021/06/20 04:10:45;;;;;;;13.65;9.30;;;;;;;20.72;80.76;100377.31;5070542;28;20497;-63
2021/06/20 04:13:13;;;;;;;14.18;8.75;;;;;;;20.70;81.16;100369.50;5061509;28;20051;-65
2021/06/20 04:15:39;;;;;;;18.85;9.48;;;;;;;20.74;80.45;100370.16;5070911;28;20056;-63
2021/06/20 04:18:06;;;;;;;17.55;9.57;;;;;;;20.70;80.53;100369.50;5068738;28;20059;-65
2021/06/20 04:20:32;;;;;;;15.10;9.88;;;;;;;20.71;80.46;100376.47;5067716;28;20047;-62
2021/06/20 04:22:59;;;;;;;14.60;10.05;;;;;;;20.66;80.92;100375.94;5071436;28;20052;-63
2021/06/20 04:25:25;;;;;;;16.80;10.73;;;;;;;20.72;80.59;100382.59;5068803;28;20049;-65
2021/06/20 04:27:52;;;;;;;19.40;10.15;;;;;;;20.70;81.18;100395.94;5068557;28;20055;-63
2021/06/20 04:30:22;;;;;;;17.63;9.98;;;;;;;20.74;80.89;100392.13;5070536;28;20043;-63
2021/06/20 04:32:49;;;;;;;16.17;9.80;;;;;;;20.73;81.52;100400.97;5070387;28;20127;-64
2021/06/20 04:35:18;;;;;;;16.70;8.75;;;;;;;20.74;81.68;100399.22;5065169;28;20486;-63
2021/06/20 04:37:45;;;;;;;18.83;9.98;;;;;;;20.85;81.08;100386.13;5070773;28;20055;-66
2021/06/20 04:40:15;;;;;;;16.33;8.85;;;;;;;20.91;80.27;100387.53;5068306;28;20040;-66
2021/06/20 04:42:42;;;;;;;15.98;9.73;;;;;;;20.90;79.66;100396.41;5064648;28;20052;-66
2021/06/20 04:45:10;;;;;;;15.80;8.82;;;;;;;20.95;79.42;100397.78;5068540;28;20425;-65
2021/06/20 04:47:41;;;;;;;19.20;10.30;;;;;;;20.97;79.35;100401.13;5069109;28;20045;-63
2021/06/20 04:50:08;;;;;;;17.40;10.32;;;;;;;21.13;78.69;100400.94;5066680;28;20071;-64
2021/06/20 04:52:35;;;;;;;14.77;9.02;;;;;;;21.32;77.63;100404.94;5070962;28;20048;-65
2021/06/20 04:55:01;;;;;;;16.20;8.95;;;;;;;21.31;77.19;100413.81;5070478;28;20044;-65
2021/06/20 04:57:30;;;;;;;19.30;9.73;;;;;;;21.33;77.53;100413.75;5070731;28;20051;-64
2021/06/20 04:59:57;;;;;;;17.15;9.60;;;;;;;;;;5065872;28;20056;-65
2021/06/20 05:02:24;;;;;;;15.98;10.02;;;;;;;21.47;77.29;100426.81;5064713;28;20117;-64
2021/06/20 05:04:52;;;;;;;17.13;8.15;;;;;;;21.54;77.33;100433.41;5066975;28;20063;-65
2021/06/20 05:07:20;;;;;;;15.85;10.00;;;;;;;21.56;76.96;100435.94;5070345;28;20067;-66
2021/06/20 05:09:47;;;;;;;14.30;9.43;;;;;;;21.40;77.91;100444.97;5069542;28;20106;-64
2021/06/20 05:12:14;;;;;;;18.02;9.50;;;;;;;21.43;78.22;100447.38;5065892;28;20051;-65
2021/06/20 05:14:43;;;;;;;14.13;8.50;;;;;;;21.45;78.24;100442.00;5060934;28;20048;-65
2021/06/20 05:17:10;;;;;;;13.52;7.57;;;;;;;21.46;78.05;100448.94;5066038;28;20040;-68
2021/06/20 05:19:36;;;;;;;13.63;6.82;;;;;;;21.39;78.48;100445.91;5060116;28;20374;-66
2021/06/20 05:22:04;;;;;;;16.92;5.57;;;;;;;21.36;78.65;100446.13;5066439;28;20049;-65
2021/06/20 05:24:31;;;;;;;7.47;4.15;;;;;;;21.37;78.26;100442.53;5065321;28;20056;-65
2021/06/20 05:26:57;;;;;;;13.90;4.00;;;;;;;21.36;77.91;100446.13;5061144;28;20045;-65
2021/06/20 05:29:24;;;;;;;8.13;3.28;;;;;;;21.28;78.33;100456.38;5061031;28;20401;-66
2021/06/20 05:31:50;;;;;;;7.38;3.58;;;;;;;21.33;77.54;100462.19;5065644;28;20037;-62
2021/06/20 05:34:17;;;;;;;6.95;2.90;;;;;;;21.34;77.20;100463.88;5064647;28;20072;-66
2021/06/20 05:36:43;;;;;;;9.43;3.65;;;;;;;;;;5068796;28;20444;-65
2021/06/20 05:39:11;;;;;;;6.70;2.80;;;;;;;21.34;76.67;100461.25;5062327;28;20063;-66
2021/06/20 05:41:37;;;;;;;10.18;3.50;;;;;;;21.35;76.61;100468.22;5062323;28;20051;-65
2021/06/20 05:44:04;;;;;;;10.90;3.05;;;;;;;21.36;76.33;100469.09;5063397;28;20057;-65
2021/06/20 05:46:31;;;;;;;6.30;2.50;;;;;;;21.37;76.10;100457.53;5061178;28;20082;-64
2021/06/20 05:48:57;;;;;;;6.75;3.00;;;;;;;21.27;76.19;100475.84;5065739;28;20536;-64
2021/06/20 05:51:24;;;;;;;9.85;3.42;;;;;;;21.31;75.72;100479.13;5093535;22;20599;-67
2021/06/20 05:53:50;;;;;;;9.07;2.60;;;;;;;21.21;76.26;100474.47;5106677;27;20805;-67
2021/06/20 05:56:18;;;;;;;9.27;3.28;;;;;;;21.24;75.72;100473.41;5108781;28;20043;-68
2021/06/20 05:58:45;;;;;;;11.05;3.33;;;;;;;21.28;75.71;100486.31;5109828;28;20047;-67
2021/06/20 06:01:11;;;;;;;8.60;3.22;;;;;;;21.30;75.60;100478.28;5104825;28;20050;-68
2021/06/20 06:03:37;;;;;;;5.97;2.47;;;;;;;21.40;75.17;100481.13;5078894;28;20052;-67
2021/06/20 06:06:05;;;;;;;13.52;3.60;;;;;;;21.53;74.52;100478.47;5084405;28;20370;-67
2021/06/20 06:08:31;;;;;;;6.85;3.03;;;;;;;21.55;74.06;100482.75;5090244;28;20405;-68
2021/06/20 06:10:59;;;;;;;5.28;3.10;;;;;;;21.56;74.24;100483.56;5091288;28;20043;-68
2021/06/20 06:13:26;;;;;;;9.13;3.55;;;;;;;21.58;74.00;100477.25;5093134;28;20066;-68
2021/06/20 06:15:53;;;;;;;7.07;3.08;;;;;;;21.70;73.31;100485.28;5090847;28;20048;-69
2021/06/20 06:18:19;;;;;;;8.43;3.08;;;;;;;21.71;72.55;100485.16;5083788;28;20048;-68
2021/06/20 06:20:46;;;;;;;11.80;3.10;;;;;;;21.71;72.69;100482.50;5084894;28;20428;-68
2021/06/20 06:23:13;;;;;;;8.90;2.85;;;;;;;21.81;72.97;100476.59;5089662;28;20085;-67
2021/06/20 06:25:40;;;;;;;7.03;2.80;;;;;;;21.92;72.29;100481.94;5087893;28;20574;-67
2021/06/20 06:28:06;;;;;;;10.02;3.60;;;;;;;21.92;71.49;100489.91;5086751;28;20040;-66
2021/06/20 06:30:34;;;;;;;9.32;3.50;;;;;;;22.22;70.58;100491.28;5089516;28;20039;-67
2021/06/20 06:33:04;;;;;;;6.80;3.22;;;;;;;22.50;69.36;100495.47;5087858;28;20058;-67
2021/06/20 06:35:30;;;;;;;8.10;2.70;;;;;;;22.61;69.23;100492.00;5084755;28;20509;-67
2021/06/20 06:37:57;;;;;;;8.43;2.92;;;;;;;22.77;68.86;100490.88;5087644;28;20050;-67
2021/06/20 06:40:23;;;;;;;6.93;2.80;;;;;;;23.00;68.51;100496.28;5082786;28;20044;-64
2021/06/20 06:42:50;;;;;;;9.23;3.63;;;;;;;23.36;66.49;100489.13;5087917;28;20049;-67
2021/06/20 06:45:17;;;;;;;10.68;3.53;;;;;;;23.54;65.68;100498.31;5089780;28;20055;-67
2021/06/20 06:47:44;;;;;;;8.85;3.53;;;;;;;23.90;64.09;100501.72;5095195;28;20055;-66
2021/06/20 06:50:12;;;;;;;6.57;3.42;;;;;;;23.97;63.12;100496.75;5084070;28;20047;-66
2021/06/20 06:52:38;;;;;;;9.70;3.20;;;;;;;23.87;63.54;100501.09;5084441;28;20063;-68
2021/06/20 06:55:09;;;;;;;9.95;3.10;;;;;;;23.87;62.49;100499.28;5082721;28;20051;-67
2021/06/20 06:57:36;;;;;;;5.93;3.20;;;;;;;23.57;63.99;100495.44;5094857;28;20131;-67
2021/06/20 07:00:05;;;;;;;9.77;2.70;;;;;;;23.72;63.81;100482.75;5084257;28;20435;-66
2021/06/20 07:02:32;;;;;;;5.72;2.63;;;;;;;23.79;62.46;100483.13;5080423;28;20061;-67
2021/06/20 07:05:00;;;;;;;7.30;2.60;;;;;;;23.62;62.69;100487.09;5082291;28;20142;-68
2021/06/20 07:07:27;;;;;;;5.05;2.40;;;;;;;23.70;61.86;100486.50;5089528;28;20163;-67
2021/06/20 07:09:58;;;;;;;6.38;2.70;;;;;;;23.72;61.63;100493.38;5082281;28;20040;-68
2021/06/20 07:12:24;;;;;;;4.82;2.42;;;;;;;23.76;60.56;100493.97;5088797;28;20052;-70
2021/06/20 07:14:51;;;;;;;6.70;2.22;;;;;;;23.74;61.04;100495.91;5083782;28;20051;-67
2021/06/20 07:17:17;;;;;;;6.63;2.63;;;;;;;23.76;60.38;100484.19;5083227;28;20070;-65
2021/06/20 07:19:44;;;;;;;5.30;2.20;;;;;;;23.83;60.08;100497.00;5078988;28;20063;-67
2021/06/20 07:22:11;;;;;;;6.65;2.30;;;;;;;24.09;60.43;100494.94;5092267;28;20063;-67
2021/06/20 07:24:38;;;;;;;5.80;2.35;;;;;;;24.50;59.06;100492.53;5083119;28;20440;-67
2021/06/20 07:27:05;;;;;;;5.90;2.40;;;;;;;24.80;58.55;100493.66;5079478;28;20048;-68
2021/06/20 07:29:32;;;;;;;5.25;2.40;;;;;;;25.15;57.72;100496.00;5084670;28;20044;-66
2021/06/20 07:31:58;;;;;;;7.20;2.10;;;;;;;25.30;54.50;100498.34;5082271;28;20090;-67
2021/06/20 07:34:25;;;;;;;5.75;1.92;;;;;;;25.24;54.72;100498.84;5083746;28;20406;-65
2021/06/20 07:36:52;;;;;;;4.70;1.92;;;;;;;25.17;55.51;100501.19;5085905;28;20071;-67
2021/06/20 07:39:20;;;;;;;5.78;2.13;;;;;;;25.33;55.14;100502.56;5095799;28;20577;-67
2021/06/20 07:41:46;;;;;;;5.22;2.33;;;;;;;25.47;53.82;100501.41;5085134;28;20048;-68
2021/06/20 07:44:13;;;;;;;6.35;2.15;;;;;;;25.45;53.20;100505.03;5079909;28;20135;-68
2021/06/20 07:46:40;;;;;;;4.97;1.77;;;;;;;25.28;53.49;100509.09;5076853;28;20067;-67
2021/06/20 07:49:06;;;;;;;6.22;2.13;;;;;;;25.03;54.23;100505.03;5070709;28;20121;-68
2021/06/20 07:51:33;;;;;;;4.82;1.70;;;;;;;24.97;54.43;100506.38;5092366;28;20050;-68
2021/06/20 07:53:59;;;;;;;5.35;1.85;;;;;;;25.13;53.61;100515.75;5082453;28;20055;-66
2021/06/20 07:56:27;;;;;;;4.38;1.90;;;;;;;25.30;51.50;100514.31;5080161;28;20048;-66
2021/06/20 07:58:56;;;;;;;7.78;1.60;;;;;;;25.30;52.07;100511.66;5083165;28;20052;-65
2021/06/20 08:01:23;;;;;;;4.00;2.00;;;;;;;25.31;51.76;100521.31;5077757;28;20072;-66
2021/06/20 08:03:49;;;;;;;6.25;1.65;;;;;;;25.42;52.74;100515.13;5078511;28;20052;-67
2021/06/20 08:06:16;;;;;;;4.63;1.58;;;;;;;25.63;51.91;100516.91;5080935;28;20071;-67
2021/06/20 08:08:42;;;;;;;5.85;1.83;;;;;;;25.91;49.64;100512.66;5085370;28;20063;-66
2021/06/20 08:11:09;;;;;;;7.22;1.52;;;;;;;25.97;50.28;100520.13;5087491;28;20044;-66
2021/06/20 08:13:36;;;;;;;4.05;1.30;;;;;;;26.00;50.64;100525.19;5084861;28;20048;-66
2021/06/20 08:16:03;;;;;;;3.33;1.30;;;;;;;26.05;50.02;100533.59;5083194;28;20099;-66
2021/06/20 08:18:30;;;;;;;5.35;1.40;;;;;;;25.91;49.51;100542.81;5083346;28;20051;-67
2021/06/20 08:20:56;;;;;;;6.15;1.40;;;;;;;25.87;50.52;100544.06;5087057;28;20457;-67
2021/06/20 08:23:23;;;;;;;5.60;1.40;;;;;;;25.82;50.00;100543.63;5087685;28;20056;-66
2021/06/20 08:25:49;;;;;;;3.95;1.38;;;;;;;25.65;51.13;100537.09;5088847;28;20155;-64
2021/06/20 08:28:16;;;;;;;4.68;1.67;;;;;;;25.70;50.18;100524.22;5082717;28;20041;-64
2021/06/20 08:30:43;;;;;;;5.95;1.45;;;;;;;25.66;50.02;100517.47;5086810;28;20061;-67
2021/06/20 08:33:10;;;;;;;5.80;1.15;;;;;;;25.83;49.27;100528.47;5085739;28;20048;-68
2021/06/20 08:35:36;;;;;;;3.25;1.17;;;;;;;25.82;48.56;100526.78;5089833;28;20738;-68
2021/06/20 08:38:03;;;;;;;2.60;1.10;;;;;;;25.57;48.86;100534.25;5084315;28;20052;-67
2021/06/20 08:40:29;;;;;;;3.15;1.30;;;;;;;25.59;48.48;100526.97;5078047;28;20052;-67
2021/06/20 08:42:57;;;;;;;4.65;1.40;;;;;;;25.55;49.74;100528.22;5072516;28;20695;-68
2021/06/20 08:45:24;;;;;;;4.00;1.60;;;;;;;25.74;49.30;100524.81;5075523;28;20056;-67
2021/06/20 08:47:52;;;;;;;7.05;1.88;;;;;;;25.75;50.37;100537.16;5083855;28;20058;-67
2021/06/20 08:50:19;;;;;;;4.88;1.25;;;;;;;25.95;48.75;100535.41;5086807;28;20044;-67
2021/06/20 08:52:46;;;;;;;3.05;1.25;;;;;;;25.94;49.49;100546.19;5079100;28;20420;-68
2021/06/20 08:55:13;;;;;;;3.10;1.38;;;;;;;26.06;49.68;100553.09;5079827;28;20048;-67
2021/06/20 08:57:42;;;;;;;6.10;1.45;;;;;;;26.15;49.19;100538.16;5080508;28;20067;-67
2021/06/20 09:00:10;;;;;;;5.80;1.58;;;;;;;26.04;48.95;100531.91;5081696;28;20050;-66
2021/06/20 09:02:37;;;;;;;3.58;1.15;;;;;;;26.10;47.82;100532.41;5074891;28;20056;-66
2021/06/20 09:05:08;;;;;;;4.68;1.20;;;;;;;26.16;47.94;100526.50;5081074;28;20520;-67
2021/06/20 09:07:36;;;;;;;4.97;1.15;;;;;;;26.39;48.26;100535.13;5093330;28;20485;-68
2021/06/20 09:10:12;;;;;;;2.97;1.10;;;;;;;26.61;45.21;100531.34;5077861;28;20044;-68
2021/06/20 09:12:46;;;;;;;7.68;1.40;;;;;;;26.35;46.50;100523.88;5083570;28;20497;-65
2021/06/20 09:15:13;;;;;;;;;;;;;;;26.28;46.02;100520.09;5079342;28;20055;-68
2021/06/20 09:17:40;;;;;;;2.00;0.95;;;;;;;26.10;46.18;100532.41;5083738;28;19924;-67
2021/06/20 09:20:09;;;;;;;3.70;1.10;;;;;;;25.89;45.74;100534.09;5083007;28;20049;-67
2021/06/20 09:22:36;;;;;;;2.33;1.00;;;;;;;25.86;45.80;100544.19;5089442;28;20144;-69
2021/06/20 09:25:05;;;;;;;2.85;0.98;;;;;;;25.77;46.33;100538.69;5089987;28;20048;-67
2021/06/20 09:27:32;;;;;;;2.80;1.15;;;;;;;25.77;46.25;100538.69;5089858;28;20409;-69
2021/06/20 09:30:08;;;;;;;2.53;1.10;;;;;;;25.77;47.06;100540.50;5075956;28;20792;-68
2021/06/20 09:32:34;;;;;;;3.15;0.95;;;;;;;25.93;47.36;100548.00;5087733;28;20571;-68
2021/06/20 09:35:01;;;;;;;4.00;1.48;;;;;;;26.04;47.08;100555.91;5088919;28;20039;-69
2021/06/20 09:37:29;;;;;;;3.58;1.02;;;;;;;26.11;46.64;100553.56;5089173;28;20048;-68
2021/06/20 09:39:56;;;;;;;3.45;1.13;;;;;;;26.32;45.73;100556.16;5087915;28;20047;-68
2021/06/20 09:42:22;;;;;;;7.38;1.75;;;;;;;26.58;44.40;100544.97;5085199;28;20056;-67
2021/06/20 09:44:53;;;;;;;4.35;1.13;;;;;;;26.39;44.97;100551.13;5084077;28;20517;-67
2021/06/20 09:47:21;;;;;;;6.22;1.10;;;;;;;26.30;44.64;100552.81;5088754;28;20078;-68
2021/06/20 09:49:50;;;;;;;5.63;1.38;;;;;;;26.14;45.84;100555.97;5087827;28;20059;-68
2021/06/20 09:52:26;;;;;;;1.95;0.90;;;;;;;25.98;45.09;100568.91;5089158;28;20048;-67
2021/06/20 09:54:55;;;;;;;2.17;0.80;;;;;;;26.00;45.66;100559.84;5080655;28;20040;-69
2021/06/20 09:57:23;;;;;;;3.08;0.90;;;;;;;26.19;46.05;100555.56;5087325;28;20219;-67
2021/06/20 09:59:58;;;;;;;3.15;1.08;;;;;;;26.54;45.09;100562.22;5083931;28;20055;-68
2021/06/20 10:02:26;;;;;;;2.67;1.08;;;;;;;26.61;44.57;100559.84;5086983;28;20048;-68
2021/06/20 10:04:53;;;;;;;5.05;1.20;;;;;;;26.50;43.53;100566.19;5083847;28;20108;-69
2021/06/20 10:07:25;;;;;;;2.50;1.00;;;;;;;26.30;44.29;100565.28;5088249;28;20051;-69
2021/06/20 10:09:52;;;;;;;3.22;1.10;;;;;;;26.21;44.67;100569.59;5086512;28;20044;-69
2021/06/20 10:12:22;;;;;;;4.30;0.90;;;;;;;26.32;44.86;100569.47;5083875;28;20394;-68
2021/06/20 10:14:48;;;;;;;4.05;1.00;;;;;;;26.26;43.77;100556.72;5085782;28;20048;-68
2021/06/20 10:17:21;;;;;;;4.53;1.17;;;;;;;26.28;43.57;100565.41;5089652;28;20066;-68
2021/06/20 10:19:51;;;;;;;2.05;0.95;;;;;;;26.15;43.62;100575.47;5092719;28;20051;-69
2021/06/20 10:22:19;;;;;;;2.20;1.05;;;;;;;26.05;45.35;100570.91;5092248;28;20073;-68
2021/06/20 10:24:47;;;;;;;3.20;1.08;;;;;;;26.36;45.12;100581.56;5084171;28;20112;-68
2021/06/20 10:27:27;;;;;;;2.38;0.90;;;;;;;26.76;44.05;100574.47;5082292;28;20052;-69
2021/06/20 10:29:56;;;;;;;5.40;1.10;;;;;;;27.24;43.72;100566.63;5081925;28;20048;-68
2021/06/20 10:32:24;;;;;;;6.15;1.58;;;;;;;27.42;42.45;100572.94;5078974;28;20055;-68
2021/06/20 10:34:53;;;;;;;6.15;1.98;;;;;;;27.61;43.46;100556.03;5084121;28;20047;-69
2021/06/20 10:37:22;;;;;;;1.85;0.98;;;;;;;27.70;41.17;100561.50;5091166;28;20043;-68
2021/06/20 10:39:50;;;;;;;3.03;1.05;;;;;;;27.67;42.53;100561.78;5090870;28;20039;-68
2021/06/20 10:42:17;;;;;;;2.75;0.80;;;;;;;27.57;39.87;100562.66;5088102;28;20410;-67
2021/06/20 10:44:46;;;;;;;2.28;1.00;;;;;;;27.35;41.09;100562.94;5088679;28;20074;-67
2021/06/20 10:47:26;;;;;;;1.90;0.80;;;;;;;27.17;41.74;100569.03;5093431;28;20448;-66
2021/06/20 10:49:55;;;;;;;5.75;0.90;;;;;;;26.81;41.80;100556.25;5084820;28;20075;-67
2021/06/20 10:52:21;;;;;;;5.72;1.08;;;;;;;26.79;43.13;100562.72;5088208;28;20082;-68
2021/06/20 10:54:52;;;;;;;3.03;1.00;;;;;;;26.88;42.33;100556.53;5084370;28;20056;-68
2021/06/20 10:57:26;;;;;;;2.22;1.00;;;;;;;27.10;41.75;100541.22;5083931;28;20259;-68
2021/06/20 10:59:55;;;;;;;2.53;0.90;;;;;;;27.24;41.33;100540.75;5081528;28;20086;-68
2021/06/20 11:02:33;;;;;;;1.50;0.70;;;;;;;27.31;40.23;100539.19;5091940;28;20094;-68
2021/06/20 11:05:00;;;;;;;1.55;0.80;;;;;;;27.51;40.57;100531.16;5085952;28;20048;-68
2021/06/20 11:07:28;;;;;;;2.25;0.82;;;;;;;27.55;39.22;100532.56;5085271;28;20526;-68
2021/06/20 11:09:56;;;;;;;2.22;0.70;;;;;;;27.72;39.31;100530.09;5091311;28;20082;-68
2021/06/20 11:12:22;;;;;;;3.00;0.95;;;;;;;27.73;38.75;100523.78;5087581;28;20085;-68
2021/06/20 11:14:50;;;;;;;3.28;1.00;;;;;;;27.68;39.39;100518.88;5084940;28;20612;-68
2021/06/20 11:17:17;;;;;;;2.28;0.80;;;;;;;27.69;38.63;100522.41;5090695;28;20052;-69
2021/06/20 11:19:45;;;;;;;7.35;1.08;;;;;;;27.54;38.77;100519.38;5086312;28;20052;-68
2021/06/20 11:22:14;;;;;;;3.28;0.80;;;;;;;27.45;40.11;100516.56;5090348;28;20048;-69
2021/06/20 11:24:43;;;;;;;1.83;0.80;;;;;;;27.57;39.23;100524.41;5089881;28;20480;-67